KPWK/PWK METAR and TAF weather

Enter ICAO airport designator
Station Type Date Time Source
KPWK METAR 2020/01/18 12:52 UTC NOAA

KPWK 181252Z 18006KT 1 3/4SM BR OVC004 01/00 A2972 RMK AO2 SLP071 T00110000 $


Station Type Date Time Source
KPWK Decoded METAR 2020/01/18 12:52 UTC NOAA

CHICAGO EXECUTIVE AIRPORT, IL, United States (KPWK) 42-07N 087-54W 203M
Jan 18, 2020 - 07:52 AM EST / 2020.01.18 1252 UTC
Wind: from the S (180 degrees) at 7 MPH (6 KT):0
Visibility: 1 3/4 mile(s):0
Sky conditions: overcast
Weather: mist
Temperature: 34.0 F (1.1 C)
Windchill: 28 F (-2 C):1
Dew Point: 32.0 F (0.0 C)
Relative Humidity: 92%
Pressure (altimeter): 29.72 in. Hg (1006 hPa)
ob: KPWK 181252Z 18006KT 1 3/4SM BR OVC004 01/00 A2972 RMK AO2 SLP071 T00110000
cycle: 13

Station Type Date Time Source
KPWK TAF UTC NOAA

Error!

Example: see airport list